createdAt,value
2024-04-15T00:00:23.429Z,10.04
2024-04-15T00:03:27.830Z,10.03
2024-04-15T00:06:30.000Z,10.07
2024-04-15T00:09:32.120Z,10.05
2024-04-15T00:12:35.668Z,10.00
2024-04-15T00:15:38.054Z,10.00
2024-04-15T00:18:40.198Z,9.98
2024-04-15T00:21:42.521Z,9.92
2024-04-15T00:24:44.827Z,9.95
2024-04-15T00:27:46.936Z,9.93
2024-04-15T00:30:49.869Z,9.95
2024-04-15T00:33:51.998Z,10.01
2024-04-15T00:36:54.267Z,10.06
2024-04-15T00:39:56.847Z,9.98
2024-04-15T00:42:59.072Z,9.98
2024-04-15T00:46:01.287Z,10.00
2024-04-15T00:49:04.092Z,9.94
2024-04-15T00:52:08.299Z,9.93
2024-04-15T00:55:10.619Z,9.90
2024-04-15T00:58:15.030Z,9.83
2024-04-15T01:01:18.582Z,9.73
2024-04-15T01:04:20.862Z,9.62
2024-04-15T01:07:23.063Z,9.53
2024-04-15T01:10:25.775Z,9.51
2024-04-15T01:13:28.572Z,9.48
2024-04-15T01:16:41.291Z,9.50
2024-04-15T01:19:43.327Z,9.49
2024-04-15T01:23:21.799Z,9.38
2024-04-15T01:26:24.114Z,9.18
2024-04-15T01:29:28.004Z,9.13
2024-04-15T01:32:31.955Z,8.90
2024-04-15T01:35:36.203Z,8.48
2024-04-15T01:38:39.134Z,8.35
2024-04-15T01:41:43.748Z,8.08
2024-04-15T01:44:48.194Z,7.98
2024-04-15T01:47:51.100Z,7.87
2024-04-15T01:50:55.922Z,8.09
2024-04-15T01:53:58.911Z,7.98
2024-04-15T01:57:02.746Z,7.95
2024-04-15T02:00:06.156Z,7.89
2024-04-15T02:03:16.009Z,7.91
2024-04-15T02:06:21.109Z,7.98
2024-04-15T02:09:26.127Z,7.92
2024-04-15T02:12:29.431Z,7.97
2024-04-15T02:15:33.455Z,7.97
2024-04-15T02:18:37.029Z,8.02
2024-04-15T02:21:40.412Z,8.08
2024-04-15T02:24:43.463Z,8.05
2024-04-15T02:27:46.585Z,8.06
2024-04-15T02:30:57.091Z,8.08
2024-04-15T02:34:03.134Z,8.08
2024-04-15T02:37:06.776Z,8.04
2024-04-15T02:40:10.149Z,7.95
2024-04-15T02:43:15.850Z,8.02
2024-04-15T02:46:18.990Z,8.06
2024-04-15T02:49:22.494Z,8.09
2024-04-15T02:52:33.010Z,8.06
2024-04-15T02:55:47.555Z,8.04
2024-04-15T02:58:57.967Z,8.03
2024-04-15T03:02:01.419Z,8.01
2024-04-15T03:05:04.764Z,8.03
2024-04-15T03:08:12.948Z,8.09
2024-04-15T03:11:20.440Z,8.16
2024-04-15T03:14:24.174Z,8.17
2024-04-15T03:17:27.898Z,8.16
2024-04-15T03:20:35.427Z,8.18
2024-04-15T03:23:38.220Z,8.20
2024-04-15T03:26:41.618Z,8.17
2024-04-15T03:29:46.240Z,8.20
2024-04-15T03:32:50.239Z,8.20
2024-04-15T03:35:52.721Z,8.19
2024-04-15T03:38:55.129Z,8.21
2024-04-15T03:41:57.566Z,8.21
2024-04-15T03:45:00.563Z,8.26
2024-04-15T03:48:03.779Z,8.25
2024-04-15T03:51:09.928Z,8.28
2024-04-15T03:54:12.085Z,8.27
2024-04-15T03:57:14.649Z,8.35
2024-04-15T04:00:17.350Z,8.38
2024-04-15T04:03:19.891Z,8.41
2024-04-15T04:06:22.665Z,8.51
2024-04-15T04:09:29.856Z,8.56
2024-04-15T04:12:32.088Z,8.60
2024-04-15T04:15:41.042Z,8.59
2024-04-15T04:18:46.507Z,8.59
2024-04-15T04:21:48.942Z,8.62
2024-04-15T04:24:51.240Z,8.67
2024-04-15T04:27:55.775Z,8.65
2024-04-15T04:31:07.587Z,8.65
2024-04-15T04:34:10.063Z,8.68
2024-04-15T04:37:13.835Z,8.69
2024-04-15T04:40:16.593Z,8.69
2024-04-15T04:43:19.517Z,8.69
2024-04-15T04:46:22.275Z,8.69
2024-04-15T04:49:24.480Z,8.69
2024-04-15T04:52:27.787Z,8.73
2024-04-15T04:55:29.960Z,8.75
2024-04-15T04:58:32.605Z,8.76
2024-04-15T05:01:35.110Z,8.74
2024-04-15T05:04:37.552Z,8.75
2024-04-15T05:07:39.883Z,8.80
2024-04-15T05:10:42.074Z,8.87
2024-04-15T05:13:44.567Z,8.81
2024-04-15T05:16:46.782Z,8.80
2024-04-15T05:19:49.789Z,8.84
2024-04-15T05:22:53.226Z,8.91
2024-04-15T05:26:00.407Z,8.99
2024-04-15T05:29:04.997Z,9.03
2024-04-15T05:32:08.147Z,9.10
2024-04-15T05:35:10.329Z,9.18
2024-04-15T05:38:12.905Z,9.24
2024-04-15T05:41:16.627Z,9.33
2024-04-15T05:44:20.238Z,9.43
2024-04-15T05:47:24.174Z,9.53
2024-04-15T05:50:28.164Z,9.61
2024-04-15T05:53:30.535Z,9.62
2024-04-15T05:56:34.523Z,9.68
2024-04-15T05:59:36.864Z,9.79
2024-04-15T06:02:39.276Z,9.92
2024-04-15T06:05:41.467Z,9.92
2024-04-15T06:08:43.699Z,9.90
2024-04-15T06:11:45.517Z,9.88
2024-04-15T06:14:47.684Z,9.89
2024-04-15T06:17:51.624Z,9.92
2024-04-15T06:20:53.825Z,9.93
2024-04-15T06:23:56.569Z,9.94
2024-04-15T06:26:58.971Z,9.94
2024-04-15T06:30:06.851Z,10.04
2024-04-15T06:33:09.083Z,10.31
2024-04-15T06:36:11.918Z,10.35
2024-04-15T06:39:15.343Z,10.54
2024-04-15T06:42:18.093Z,10.66
2024-04-15T06:45:21.850Z,10.61
2024-04-15T06:48:24.207Z,10.68
2024-04-15T06:51:26.564Z,10.84
2024-04-15T06:54:30.686Z,10.99
2024-04-15T06:57:32.984Z,10.92
2024-04-15T07:00:39.796Z,10.84
2024-04-15T07:03:41.938Z,10.68
2024-04-15T07:06:48.132Z,10.69
2024-04-15T07:09:52.947Z,10.76
2024-04-15T07:12:56.432Z,10.96
2024-04-15T07:15:59.460Z,11.12
2024-04-15T07:19:01.742Z,11.15
2024-04-15T07:22:04.733Z,11.16
2024-04-15T07:25:07.167Z,11.10
2024-04-15T07:28:09.491Z,11.06
2024-04-15T07:31:12.329Z,11.13
2024-04-15T07:34:17.157Z,11.18
2024-04-15T07:37:21.181Z,11.24
2024-04-15T07:40:23.366Z,11.31
2024-04-15T07:43:25.998Z,11.29
2024-04-15T07:46:28.184Z,11.27
2024-04-15T07:49:30.478Z,11.26
2024-04-15T07:52:32.599Z,11.19
2024-04-15T07:55:35.583Z,11.31
2024-04-15T07:58:37.836Z,11.45
2024-04-15T08:01:40.696Z,11.67
2024-04-15T08:04:43.081Z,11.85
2024-04-15T08:07:45.217Z,11.87
2024-04-15T08:10:47.816Z,11.88
2024-04-15T08:13:51.211Z,11.80
2024-04-15T08:16:53.461Z,11.63
2024-04-15T08:19:55.811Z,11.58
2024-04-15T08:22:57.813Z,11.63
2024-04-15T08:26:00.241Z,11.75
2024-04-15T08:29:05.262Z,11.91
2024-04-15T08:32:07.604Z,12.12
2024-04-15T08:35:09.785Z,12.40
2024-04-15T08:38:11.943Z,12.53
2024-04-15T08:41:28.381Z,12.62
2024-04-15T08:44:31.755Z,12.58
2024-04-15T08:47:36.179Z,12.42
2024-04-15T08:50:38.209Z,12.45
2024-04-15T08:53:40.340Z,12.61
2024-04-15T08:56:45.197Z,12.64
2024-04-15T08:59:47.523Z,12.49
2024-04-15T09:02:52.569Z,12.45
2024-04-15T09:05:54.905Z,12.61
2024-04-15T09:08:56.991Z,12.98
2024-04-15T09:11:58.982Z,13.18
2024-04-15T09:15:01.262Z,13.37
2024-04-15T09:18:04.815Z,13.36
2024-04-15T09:21:07.683Z,13.50
2024-04-15T09:24:11.595Z,13.57
2024-04-15T09:27:13.692Z,13.67
2024-04-15T09:30:16.029Z,13.46
2024-04-15T09:33:22.856Z,12.99
2024-04-15T09:36:25.095Z,12.66
2024-04-15T09:39:28.875Z,12.36
2024-04-15T09:42:31.184Z,12.47
2024-04-15T09:45:33.403Z,12.57
2024-04-15T09:48:38.473Z,12.78
2024-04-15T09:51:42.961Z,12.88
2024-04-15T09:54:47.163Z,13.06
2024-04-15T09:57:51.090Z,13.55
2024-04-15T10:00:57.203Z,14.05
2024-04-15T10:04:03.394Z,14.41
2024-04-15T10:07:07.125Z,14.59
2024-04-15T10:10:10.605Z,14.65
2024-04-15T10:13:14.581Z,14.32
2024-04-15T10:16:35.460Z,14.03
2024-04-15T10:19:51.380Z,13.86
2024-04-15T10:23:08.464Z,13.68
2024-04-15T10:26:11.182Z,13.57
2024-04-15T10:29:18.323Z,13.47
2024-04-15T10:32:26.550Z,13.63
2024-04-15T10:35:28.590Z,14.05
2024-04-15T10:38:30.869Z,14.16
2024-04-15T10:41:35.292Z,14.20
2024-04-15T10:44:37.691Z,14.15
2024-04-15T10:47:41.176Z,13.84
2024-04-15T10:50:45.545Z,13.51
2024-04-15T10:53:49.576Z,13.18
2024-04-15T10:56:54.076Z,13.18
2024-04-15T10:59:56.728Z,13.39
2024-04-15T11:02:59.767Z,13.81
2024-04-15T11:06:02.055Z,14.04
2024-04-15T11:09:06.000Z,14.19
2024-04-15T11:12:09.420Z,14.55
2024-04-15T11:15:13.939Z,14.74
2024-04-15T11:18:16.804Z,14.67
2024-04-15T11:21:19.109Z,14.50
2024-04-15T11:24:21.339Z,14.47
2024-04-15T11:27:26.788Z,14.35
2024-04-15T11:30:30.617Z,14.16
2024-04-15T11:33:33.250Z,14.06
2024-04-15T11:36:38.054Z,14.02
2024-04-15T11:39:41.484Z,13.86
2024-04-15T11:42:43.962Z,13.84
2024-04-15T11:45:58.668Z,13.71
2024-04-15T11:49:01.333Z,13.74
2024-04-15T11:52:03.532Z,13.91
2024-04-15T11:55:13.927Z,14.39
2024-04-15T11:58:17.728Z,14.85
2024-04-15T12:01:21.259Z,14.88
2024-04-15T12:04:24.035Z,14.74
2024-04-15T12:07:26.925Z,14.62
2024-04-15T12:10:29.313Z,14.75
2024-04-15T12:13:31.426Z,15.05
2024-04-15T12:16:33.560Z,15.46
2024-04-15T12:19:35.740Z,15.43
2024-04-15T12:22:37.694Z,15.34
2024-04-15T12:25:39.816Z,15.26
2024-04-15T12:28:42.776Z,15.37
2024-04-15T12:31:44.956Z,15.56
2024-04-15T12:34:47.156Z,15.99
2024-04-15T12:37:49.346Z,15.99
2024-04-15T12:40:51.821Z,15.94
2024-04-15T12:43:54.088Z,15.98
2024-04-15T12:46:56.221Z,16.02
2024-04-15T12:49:58.579Z,16.24
2024-04-15T12:53:00.619Z,16.39
2024-04-15T12:56:02.788Z,16.69
2024-04-15T12:59:05.236Z,17.48
2024-04-15T13:02:09.842Z,18.17
2024-04-15T13:05:12.889Z,18.32
2024-04-15T13:08:15.492Z,18.00
2024-04-15T13:11:17.791Z,18.20
2024-04-15T13:14:20.003Z,18.25
2024-04-15T13:17:22.054Z,18.58
2024-04-15T13:20:26.510Z,18.59
2024-04-15T13:23:28.815Z,18.47
2024-04-15T13:26:31.044Z,18.27
2024-04-15T13:29:35.372Z,18.19
2024-04-15T13:32:38.415Z,17.98
2024-04-15T13:35:41.137Z,17.92
2024-04-15T13:38:43.468Z,18.39
2024-04-15T13:41:45.963Z,18.51
2024-04-15T13:44:48.562Z,18.29
2024-04-15T13:47:51.308Z,18.63
2024-04-15T13:50:53.578Z,18.60
2024-04-15T13:53:55.860Z,18.63
2024-04-15T13:56:59.831Z,18.67
2024-04-15T14:00:04.321Z,18.88
2024-04-15T14:03:14.775Z,18.50
2024-04-15T14:06:20.398Z,17.76
2024-04-15T14:09:25.999Z,17.41
2024-04-15T14:12:28.488Z,16.90
2024-04-15T14:15:30.585Z,16.61
2024-04-15T14:18:35.245Z,16.63
2024-04-15T14:21:37.762Z,16.54
2024-04-15T14:24:46.654Z,16.17
2024-04-15T14:27:48.857Z,15.99
2024-04-15T14:30:54.556Z,15.87
2024-04-15T14:33:57.690Z,15.78
2024-04-15T14:37:03.030Z,15.62
2024-04-15T14:40:19.361Z,15.58
2024-04-15T14:43:31.471Z,15.65
2024-04-15T14:46:37.148Z,15.76
2024-04-15T14:49:43.023Z,15.89
2024-04-15T14:52:45.338Z,16.25
2024-04-15T14:55:49.578Z,16.91
2024-04-15T14:58:52.332Z,16.66
2024-04-15T15:01:54.649Z,16.34
2024-04-15T15:04:56.818Z,15.84
2024-04-15T15:08:01.950Z,15.64
2024-04-15T15:11:11.360Z,15.52
2024-04-15T15:14:15.496Z,15.24
2024-04-15T15:17:17.828Z,15.18
2024-04-15T15:20:19.980Z,15.26
2024-04-15T15:23:22.162Z,15.21
2024-04-15T15:26:26.690Z,14.94
2024-04-15T15:29:30.804Z,14.75
2024-04-15T15:32:36.399Z,14.43
2024-04-15T15:35:39.304Z,13.73
2024-04-15T15:38:43.993Z,13.41
2024-04-15T15:41:47.444Z,13.54
2024-04-15T15:44:49.877Z,13.54
2024-04-15T15:47:52.974Z,13.52
2024-04-15T15:50:56.453Z,13.51
2024-04-15T15:53:59.088Z,13.52
2024-04-15T15:57:04.029Z,13.50
2024-04-15T16:00:09.116Z,13.40
2024-04-15T16:03:11.537Z,13.23
2024-04-15T16:06:13.888Z,13.11
2024-04-15T16:09:18.974Z,13.01
2024-04-15T16:12:21.414Z,12.81
2024-04-15T16:15:24.574Z,12.55
2024-04-15T16:18:26.520Z,12.23
2024-04-15T16:21:29.882Z,12.06
2024-04-15T16:24:32.342Z,12.14
2024-04-15T16:27:39.315Z,12.13
2024-04-15T16:30:41.378Z,12.10
2024-04-15T16:33:44.938Z,12.14
2024-04-15T16:36:48.482Z,12.18
2024-04-15T16:39:51.144Z,12.20
2024-04-15T16:42:53.391Z,12.15
2024-04-15T16:45:58.099Z,12.08
2024-04-15T16:49:00.670Z,12.07
2024-04-15T16:52:02.945Z,12.11
2024-04-15T16:55:05.702Z,12.09
2024-04-15T16:58:08.399Z,12.12
2024-04-15T17:01:10.640Z,11.74
2024-04-15T17:04:13.371Z,10.94
2024-04-15T17:07:15.983Z,10.06
2024-04-15T17:10:21.450Z,9.24
2024-04-15T17:13:31.748Z,8.32
2024-04-15T17:16:38.229Z,7.52
2024-04-15T17:19:41.427Z,7.30
2024-04-15T17:22:49.983Z,7.16
2024-04-15T17:25:52.547Z,7.07
2024-04-15T17:28:55.410Z,6.78
2024-04-15T17:31:57.476Z,6.67
2024-04-15T17:35:02.438Z,6.60
2024-04-15T17:38:05.059Z,6.48
2024-04-15T17:41:07.419Z,6.55
2024-04-15T17:44:21.303Z,6.58
2024-04-15T17:47:34.952Z,6.46
2024-04-15T17:51:13.338Z,6.38
2024-04-15T17:54:17.346Z,6.37
2024-04-15T17:57:20.422Z,6.20
2024-04-15T18:00:37.709Z,6.30
2024-04-15T18:03:43.846Z,6.03
2024-04-15T18:06:50.395Z,6.13
2024-04-15T18:09:59.207Z,6.02
2024-04-15T18:13:02.418Z,6.06
2024-04-15T18:16:09.023Z,6.21
2024-04-15T18:19:11.500Z,6.47
2024-04-15T18:22:13.921Z,6.42
2024-04-15T18:25:20.913Z,6.40
2024-04-15T18:28:23.374Z,6.31
2024-04-15T18:31:26.670Z,6.37
2024-04-15T18:34:29.877Z,6.28
2024-04-15T18:37:36.992Z,6.18
2024-04-15T18:40:41.133Z,6.29
2024-04-15T18:43:43.572Z,6.33
2024-04-15T18:46:47.895Z,6.35
2024-04-15T18:49:51.582Z,6.19
2024-04-15T18:52:56.356Z,6.24
2024-04-15T18:56:02.191Z,6.20
2024-04-15T18:59:23.927Z,5.99
2024-04-15T19:02:29.090Z,6.19
2024-04-15T19:05:31.386Z,6.16
2024-04-15T19:08:35.673Z,6.07
2024-04-15T19:11:37.750Z,6.17
2024-04-15T19:14:52.191Z,6.06
2024-04-15T19:18:04.514Z,6.02
2024-04-15T19:21:09.177Z,5.97
2024-04-15T19:24:11.302Z,5.84
2024-04-15T19:27:13.451Z,5.78
2024-04-15T19:30:15.815Z,5.69
2024-04-15T19:33:22.375Z,5.58
2024-04-15T19:36:26.277Z,5.59
2024-04-15T19:39:28.536Z,5.53
2024-04-15T19:42:39.133Z,5.68
2024-04-15T19:45:44.296Z,5.66
2024-04-15T19:48:46.372Z,5.52
2024-04-15T19:51:48.888Z,5.35
2024-04-15T19:54:51.131Z,5.28
2024-04-15T19:58:07.543Z,5.14
2024-04-15T20:01:12.575Z,5.04
2024-04-15T20:04:21.596Z,5.01
2024-04-15T20:07:27.409Z,5.13
2024-04-15T20:10:41.899Z,5.27
2024-04-15T20:13:54.617Z,5.38
2024-04-15T20:17:17.595Z,5.46
2024-04-15T20:20:31.070Z,5.56
2024-04-15T20:23:41.746Z,5.57
2024-04-15T20:26:50.993Z,5.52
2024-04-15T20:29:53.642Z,5.29
2024-04-15T20:32:58.517Z,5.18
2024-04-15T20:36:01.031Z,5.28
2024-04-15T20:39:06.706Z,5.04
2024-04-15T20:42:10.219Z,4.90
2024-04-15T20:45:14.959Z,4.91
2024-04-15T20:48:19.301Z,4.95
2024-04-15T20:51:22.222Z,4.85
2024-04-15T20:54:28.642Z,4.88
2024-04-15T20:57:31.211Z,4.83
2024-04-15T21:00:41.938Z,4.87
2024-04-15T21:03:47.624Z,4.78
2024-04-15T21:06:52.293Z,4.79
2024-04-15T21:09:54.625Z,4.82
2024-04-15T21:12:59.583Z,4.75
2024-04-15T21:16:10.331Z,4.65
2024-04-15T21:19:24.713Z,4.54
2024-04-15T21:22:31.074Z,4.47
2024-04-15T21:25:38.202Z,4.53
2024-04-15T21:28:43.245Z,4.49
2024-04-15T21:31:47.344Z,4.56
2024-04-15T21:34:51.510Z,4.51
2024-04-15T21:37:55.682Z,4.50
2024-04-15T21:41:01.439Z,4.56
2024-04-15T21:44:06.677Z,4.52
2024-04-15T21:47:10.080Z,4.54
2024-04-15T21:50:18.170Z,4.56
2024-04-15T21:53:20.404Z,4.51
2024-04-15T21:56:22.801Z,4.59
2024-04-15T21:59:27.409Z,4.54
2024-04-15T22:02:30.010Z,4.64
2024-04-15T22:05:33.588Z,4.72
2024-04-15T22:08:35.872Z,4.79
2024-04-15T22:11:41.303Z,4.78
2024-04-15T22:14:44.529Z,4.74
2024-04-15T22:17:48.139Z,4.79
2024-04-15T22:20:52.179Z,4.78
2024-04-15T22:23:54.387Z,4.87
2024-04-15T22:26:56.618Z,4.85
2024-04-15T22:29:59.584Z,4.88
2024-04-15T22:33:01.959Z,4.97
2024-04-15T22:36:05.965Z,4.95
2024-04-15T22:39:11.214Z,5.02
2024-04-15T22:42:15.402Z,5.08
2024-04-15T22:45:18.376Z,5.22
2024-04-15T22:48:21.738Z,5.27
2024-04-15T22:51:25.694Z,5.25
2024-04-15T22:54:28.059Z,5.20
2024-04-15T22:57:30.367Z,5.25
2024-04-15T23:00:33.668Z,5.23
2024-04-15T23:03:36.065Z,5.31
2024-04-15T23:06:38.370Z,5.38
2024-04-15T23:09:42.136Z,5.52
2024-04-15T23:12:44.299Z,5.57
2024-04-15T23:15:46.667Z,5.61
2024-04-15T23:18:51.795Z,5.69
2024-04-15T23:21:54.068Z,5.74
2024-04-15T23:24:57.423Z,5.78
2024-04-15T23:28:03.481Z,5.83
2024-04-15T23:31:06.833Z,5.82
2024-04-15T23:34:11.899Z,5.85
2024-04-15T23:37:14.456Z,5.75
2024-04-15T23:40:16.677Z,5.84
2024-04-15T23:43:20.572Z,5.80
2024-04-15T23:46:44.723Z,5.77
2024-04-15T23:50:06.150Z,5.80
2024-04-15T23:53:28.024Z,5.83
2024-04-15T23:56:50.637Z,5.82
2024-04-15T23:59:52.696Z,5.81
